Startpagina
METAR-TAF:

METAR-TAF

Vliegvelden :

Luchthaven Ankara Esenboga

Ankara Esenboğa, Turkije

breedte: 40-07N, lengte: 032-59E, hoogte: 953 m

Actueel weer

Dit bericht is 22 minuten geleden gemaakt, om 20:50 UTC
Wind 6 kt uit het noorden
Temperatuur 21°C
Vochtigheid 56%
Druk 1014 hPa
Zicht 10 km of meer
geen wolken onder 1500 m en geen cumulonimbus

METAR: LTAC 212050Z 35006KT CAVOK 21/12 Q1014 NOSIG RMK RWY21L 35006KT RWY03L 34006KT RWY21R 35003KT 310V020

Tijdstip: 00:12 (21:12 UTC)

Verwachting

Dit bericht is 4 uur en het 32 minuten geleden gemaakt, om 16:40 UTC
Verwachting geldig van 21 om 18 UTC tot 22 om 18 UTC
Wind 2 kt uit variabele richting
Zicht 10 km of meer
Weinig wolken op 4000 ft
Wijzigt naar
van 21 om 20 UTC tot 21 om 22 UTC
Zicht 10 km of meer
geen wolken onder 1500 m en geen cumulonimbus
Wijzigt naar
van 22 om 04 UTC tot 22 om 06 UTC
Verspreide wolken op 4000 ft

TAF: LTAC 211640Z 2118/2218 VRB02KT 9999 FEW040 BECMG 2120/2122 CAVOK BECMG 2204/2206 SCT040

Waarnemingen en weersverwachtingen van meer dan 4000 vliegvelden (METAR en TAF).

De beschikbare stations zijn de gele en rode punten op de kaart.

Ga met uw muis naar het station om de naam te zien.

Klik dan om waarnemingen en weersverwachtingen te zien.

kaart wijzigen: klik op de groene knoppen met een zwart kruis om in te zoomen, op de groene knop met een streepje om uit te zoomen of op de groene pijlen voor aangrenzende kaarten.


METAR-TAF: